createdAt,value
2024-01-20T00:03:29.581Z,10.50
2024-01-20T00:08:31.858Z,9.57
2024-01-20T00:13:33.864Z,9.93
2024-01-20T00:18:36.924Z,9.98
2024-01-20T00:23:39.463Z,10.27
2024-01-20T00:28:42.679Z,9.98
2024-01-20T00:33:46.548Z,10.05
2024-01-20T00:38:48.676Z,9.88
2024-01-20T00:43:50.739Z,11.65
2024-01-20T00:48:52.788Z,10.95
2024-01-20T00:53:54.899Z,10.82
2024-01-20T00:58:57.702Z,12.07
2024-01-20T01:03:59.811Z,12.07
2024-01-20T01:09:01.707Z,11.75
2024-01-20T01:14:03.903Z,13.30
2024-01-20T01:24:08.064Z,12.60
2024-01-20T01:29:10.301Z,13.10
2024-01-20T01:34:12.317Z,12.93
2024-01-20T01:39:14.316Z,12.20
2024-01-20T01:44:16.337Z,12.15
2024-01-20T01:49:18.551Z,13.23
2024-01-20T01:54:22.043Z,12.73
2024-01-20T01:59:24.671Z,12.60
2024-01-20T02:04:27.025Z,12.90
2024-01-20T02:09:30.041Z,12.75
2024-01-20T02:14:32.295Z,12.30
2024-01-20T02:19:41.140Z,12.40
2024-01-20T02:24:52.289Z,12.43
2024-01-20T02:29:55.244Z,12.77
2024-01-20T02:40:00.253Z,13.48
2024-01-20T02:45:02.166Z,12.40
2024-01-20T02:50:04.613Z,12.88
2024-01-20T02:55:06.706Z,13.15
2024-01-20T03:05:12.465Z,12.48
2024-01-20T03:10:14.760Z,13.70
2024-01-20T03:20:19.073Z,12.90
2024-01-20T03:25:21.025Z,12.25
2024-01-20T03:30:23.108Z,12.00
2024-01-20T03:35:25.037Z,12.55
2024-01-20T03:40:28.481Z,12.88
2024-01-20T03:45:31.105Z,12.07
2024-01-20T03:50:33.061Z,14.02
2024-01-20T04:00:37.262Z,13.77
2024-01-20T04:10:42.602Z,13.27
2024-01-20T04:16:04.674Z,12.85
2024-01-20T04:21:06.228Z,13.02
2024-01-20T04:26:08.166Z,13.20
2024-01-20T04:31:10.204Z,14.32
2024-01-20T04:36:12.067Z,13.85
2024-01-20T04:41:14.186Z,13.48
2024-01-20T04:46:16.602Z,13.10
2024-01-20T04:51:18.689Z,13.65
2024-01-20T05:01:23.521Z,12.68
2024-01-20T05:06:26.151Z,13.73
2024-01-20T05:16:29.968Z,12.80
2024-01-20T05:21:32.011Z,13.05
2024-01-20T05:31:36.302Z,13.20
2024-01-20T05:36:38.265Z,13.88
2024-01-20T05:46:42.279Z,12.57
2024-01-20T05:51:44.362Z,13.65
2024-01-20T05:56:46.745Z,14.20
2024-01-20T06:01:51.538Z,14.23
2024-01-20T06:06:53.737Z,13.98
2024-01-20T06:11:55.560Z,13.38
2024-01-20T06:16:57.461Z,14.55
2024-01-20T06:21:59.417Z,14.57
2024-01-20T06:32:03.453Z,13.65
2024-01-20T06:37:06.212Z,13.32
2024-01-20T06:42:11.428Z,14.32
2024-01-20T06:47:13.428Z,15.50
2024-01-20T06:52:15.297Z,14.98
2024-01-20T06:57:17.200Z,15.00
2024-01-20T07:07:21.005Z,14.93
2024-01-20T07:12:22.858Z,14.85
2024-01-20T07:17:24.800Z,15.73
2024-01-20T07:22:26.707Z,13.38
2024-01-20T07:27:28.972Z,14.70
2024-01-20T07:32:31.456Z,15.30
2024-01-20T07:37:37.081Z,15.60
2024-01-20T07:42:41.302Z,14.75
2024-01-20T07:47:43.225Z,16.13
2024-01-20T07:52:46.115Z,19.52
2024-01-20T07:57:48.481Z,15.65
2024-01-20T08:02:50.536Z,18.60
2024-01-20T08:07:52.455Z,17.98
2024-01-20T08:12:54.316Z,16.90
2024-01-20T08:17:56.418Z,15.55
2024-01-20T08:22:58.372Z,16.85
2024-01-20T08:28:00.314Z,16.50
2024-01-20T08:33:04.435Z,16.08
2024-01-20T08:38:07.248Z,16.65
2024-01-20T08:48:11.568Z,16.40
2024-01-20T08:53:15.571Z,16.58
2024-01-20T08:58:17.415Z,17.42
2024-01-20T09:03:21.047Z,17.55
2024-01-20T09:08:23.092Z,20.35
2024-01-20T09:13:25.441Z,18.83
2024-01-20T09:23:29.561Z,19.48
2024-01-20T09:28:31.419Z,18.02
2024-01-20T09:33:33.764Z,19.15
2024-01-20T09:43:39.827Z,19.20
2024-01-20T09:48:44.519Z,19.05
2024-01-20T09:53:49.248Z,17.55
2024-01-20T09:58:52.689Z,17.25
2024-01-20T10:04:01.488Z,14.80
2024-01-20T10:09:04.316Z,15.20
2024-01-20T10:14:07.544Z,13.93
2024-01-20T10:19:09.518Z,12.93
2024-01-20T10:24:11.837Z,12.07
2024-01-20T10:29:14.291Z,10.43
2024-01-20T10:34:16.230Z,9.98
2024-01-20T10:39:21.136Z,10.60
2024-01-20T10:44:28.898Z,10.88
2024-01-20T10:49:30.865Z,10.15
2024-01-20T10:54:33.918Z,10.35
2024-01-20T10:59:40.959Z,9.40
2024-01-20T11:04:45.949Z,8.57
2024-01-20T11:09:58.424Z,8.57
2024-01-20T11:15:01.159Z,8.27
2024-01-20T11:20:08.433Z,8.57
2024-01-20T11:25:11.787Z,8.43
2024-01-20T11:30:15.717Z,8.20
2024-01-20T11:35:19.077Z,7.88
2024-01-20T11:40:21.057Z,7.90
2024-01-20T11:45:22.985Z,7.72
2024-01-20T11:50:24.834Z,7.53
2024-01-20T11:55:27.388Z,7.20
2024-01-20T12:05:31.566Z,6.67
2024-01-20T12:10:34.111Z,6.97
2024-01-20T12:20:38.900Z,6.18
2024-01-20T12:30:43.208Z,7.38
2024-01-20T12:35:45.926Z,7.20
2024-01-20T12:40:48.336Z,7.85
2024-01-20T12:45:50.282Z,9.77
2024-01-20T12:50:52.619Z,7.40
2024-01-20T12:55:54.496Z,7.55
2024-01-20T13:00:56.361Z,7.87
2024-01-20T13:05:58.337Z,7.47
2024-01-20T13:11:00.335Z,7.90
2024-01-20T13:16:02.243Z,8.20
2024-01-20T13:21:04.310Z,7.72
2024-01-20T13:26:06.606Z,7.18
2024-01-20T13:31:08.597Z,7.38
2024-01-20T13:36:10.538Z,7.33
2024-01-20T13:41:12.517Z,6.53
2024-01-20T13:46:14.744Z,6.28
2024-01-20T13:51:18.697Z,6.38
2024-01-20T13:56:22.196Z,6.00
2024-01-20T14:01:24.869Z,6.30
2024-01-20T14:11:28.914Z,5.50
2024-01-20T14:16:31.602Z,6.20
2024-01-20T14:21:34.203Z,5.60
2024-01-20T14:26:36.183Z,5.82
2024-01-20T14:31:49.010Z,6.35
2024-01-20T14:36:53.851Z,4.97
2024-01-20T14:41:55.722Z,4.82
2024-01-20T14:46:57.616Z,4.47
2024-01-20T14:51:59.437Z,5.10
2024-01-20T14:57:01.358Z,5.20
2024-01-20T15:02:05.352Z,4.45
2024-01-20T15:07:08.142Z,4.43
2024-01-20T15:12:10.041Z,4.20
2024-01-20T15:17:13.475Z,4.47
2024-01-20T15:22:15.601Z,4.10
2024-01-20T15:27:18.901Z,3.75
2024-01-20T15:32:20.876Z,3.78
2024-01-20T15:37:23.061Z,4.20
2024-01-20T15:42:24.924Z,3.87
2024-01-20T15:47:26.844Z,3.80
2024-01-20T15:52:29.084Z,3.10
2024-01-20T15:57:31.333Z,3.15
2024-01-20T16:02:33.796Z,3.60
2024-01-20T16:07:35.780Z,3.70
2024-01-20T16:12:37.820Z,4.47
2024-01-20T16:17:42.087Z,5.38
2024-01-20T16:22:44.373Z,4.60
2024-01-20T16:27:46.569Z,3.67
2024-01-20T16:32:48.623Z,3.40
2024-01-20T16:38:16.383Z,3.42
2024-01-20T16:43:18.830Z,3.20
2024-01-20T16:48:20.860Z,3.15
2024-01-20T16:53:23.098Z,2.80
2024-01-20T16:58:24.926Z,3.42
2024-01-20T17:03:26.829Z,3.70
2024-01-20T17:08:28.867Z,5.10
2024-01-20T17:13:31.020Z,5.20
2024-01-20T17:18:33.800Z,5.72
2024-01-20T17:23:36.006Z,4.10
2024-01-20T17:28:37.944Z,3.92
2024-01-20T17:33:40.058Z,3.95
2024-01-20T17:38:41.983Z,4.30
2024-01-20T17:43:45.441Z,4.35
2024-01-20T17:48:47.479Z,4.15
2024-01-20T17:53:49.320Z,4.78
2024-01-20T17:58:51.290Z,5.05
2024-01-20T18:03:53.377Z,4.80
2024-01-20T18:08:57.592Z,5.38
2024-01-20T18:13:59.778Z,4.90
2024-01-20T18:19:01.622Z,5.60
2024-01-20T18:24:05.322Z,5.78
2024-01-20T18:29:07.318Z,6.30
2024-01-20T18:34:09.392Z,6.60
2024-01-20T18:39:11.737Z,7.03
2024-01-20T18:44:15.719Z,6.03
2024-01-20T18:49:18.502Z,8.02
2024-01-20T18:54:20.366Z,7.10
2024-01-20T18:59:22.374Z,6.50
2024-01-20T19:04:24.442Z,7.25
2024-01-20T19:09:27.136Z,8.30
2024-01-20T19:14:29.151Z,8.57
2024-01-20T19:19:32.917Z,7.88
2024-01-20T19:24:35.817Z,8.20
2024-01-20T19:29:37.829Z,8.23
2024-01-20T19:34:40.160Z,7.97
2024-01-20T19:39:44.162Z,7.68
2024-01-20T19:44:48.336Z,7.28
2024-01-20T19:49:54.312Z,7.65
2024-01-20T19:54:56.303Z,7.38
2024-01-20T19:59:58.240Z,7.07
2024-01-20T20:05:00.744Z,7.40
2024-01-20T20:10:02.721Z,7.57
2024-01-20T20:15:05.626Z,6.88
2024-01-20T20:20:08.253Z,7.25
2024-01-20T20:25:10.493Z,9.05
2024-01-20T20:30:12.582Z,7.97
2024-01-20T20:35:15.615Z,7.60
2024-01-20T20:40:17.982Z,7.10
2024-01-20T20:45:20.361Z,6.68
2024-01-20T20:55:24.450Z,6.97
2024-01-20T21:00:26.245Z,7.63
2024-01-20T21:05:28.139Z,9.35
2024-01-20T21:10:30.006Z,8.50
2024-01-20T21:15:33.525Z,7.88
2024-01-20T21:20:36.594Z,7.78
2024-01-20T21:25:38.613Z,7.57
2024-01-20T21:30:40.506Z,7.30
2024-01-20T21:35:42.568Z,7.40
2024-01-20T21:40:47.514Z,7.53
2024-01-20T21:45:50.093Z,7.28
2024-01-20T21:50:52.029Z,7.20
2024-01-20T21:55:53.882Z,6.97
2024-01-20T22:00:56.000Z,7.95
2024-01-20T22:05:58.194Z,6.97
2024-01-20T22:11:00.021Z,6.95
2024-01-20T22:16:01.965Z,6.65
2024-01-20T22:21:04.995Z,6.32
2024-01-20T22:26:10.492Z,7.80
2024-01-20T22:31:12.512Z,6.30
2024-01-20T22:41:17.854Z,6.50
2024-01-20T22:46:19.726Z,6.82
2024-01-20T22:51:23.154Z,7.20
2024-01-20T22:56:25.286Z,7.53
2024-01-20T23:01:27.176Z,7.10
2024-01-20T23:06:29.190Z,7.75
2024-01-20T23:11:31.357Z,8.63
2024-01-20T23:21:35.246Z,7.00
2024-01-20T23:26:43.000Z,7.75
2024-01-20T23:31:45.582Z,7.28
2024-01-20T23:36:47.647Z,7.40
2024-01-20T23:41:49.800Z,7.60
2024-01-20T23:46:51.805Z,8.15
2024-01-20T23:51:54.578Z,7.75
2024-01-20T23:56:57.423Z,7.40
